Time;durP1;ratioP1;P1;durP2;ratioP2;P2;SDS_P1;SDS_P2;PMS_P1;PMS_P2;Temp;Humidity;BMP_temperature;BMP_pressure;BME280_temperature;BME280_humidity;BME280_pressure;Samples;Min_cycle;Max_cycle;Signal;HPM_P1;HPM_P2
2021/05/26 00:01:06;;;;;;;12.25;5.43;;;9.10;99.90;;;;;;5025940;28;20042;-70
2021/05/26 00:03:32;;;;;;;7.07;4.05;;;9.10;99.90;;;;;;5026910;28;20054;-71
2021/05/26 00:05:58;;;;;;;6.32;3.63;;;9.10;99.90;;;;;;5027183;28;20089;-76
2021/05/26 00:08:25;;;;;;;6.05;3.28;;;9.10;99.90;;;;;;5026545;28;20030;-77
2021/05/26 00:10:51;;;;;;;6.22;2.17;;;9.10;99.90;;;;;;5025708;28;20037;-72
2021/05/26 00:13:16;;;;;;;5.07;2.83;;;9.00;99.90;;;;;;5027037;28;20026;-73
2021/05/26 00:15:42;;;;;;;4.75;2.45;;;9.00;99.90;;;;;;5025407;28;20103;-73
2021/05/26 00:18:07;;;;;;;16.63;3.05;;;9.00;99.90;;;;;;5027171;28;20080;-73
2021/05/26 00:20:33;;;;;;;8.20;2.75;;;9.00;99.90;;;;;;5025840;28;20030;-71
2021/05/26 00:22:58;;;;;;;2.78;2.10;;;8.90;99.90;;;;;;5026548;28;20038;-70
2021/05/26 00:25:24;;;;;;;7.35;2.53;;;8.90;99.90;;;;;;5026775;28;20034;-72
2021/05/26 00:27:57;;;;;;;7.03;2.72;;;8.90;99.90;;;;;;5026568;28;20032;-70
2021/05/26 00:30:23;;;;;;;5.13;3.10;;;8.90;99.90;;;;;;5026397;28;20103;-71
2021/05/26 00:32:49;;;;;;;8.40;3.85;;;8.90;99.90;;;;;;5025445;28;20113;-72
2021/05/26 00:35:14;;;;;;;9.02;3.58;;;8.80;99.90;;;;;;5026376;28;20026;-74
2021/05/26 00:37:40;;;;;;;8.30;4.20;;;8.90;99.90;;;;;;5026033;28;20030;-70
2021/05/26 00:40:06;;;;;;;7.50;3.75;;;8.90;99.90;;;;;;5009018;28;20026;-71
2021/05/26 00:42:31;;;;;;;8.27;4.15;;;8.90;99.90;;;;;;5026006;28;20045;-72
2021/05/26 00:44:57;;;;;;;7.50;4.00;;;8.90;99.90;;;;;;5026322;28;20030;-70
2021/05/26 00:47:35;;;;;;;8.68;4.82;;;8.90;99.90;;;;;;5026329;28;20082;-71
2021/05/26 00:50:01;;;;;;;9.35;4.82;;;8.90;99.90;;;;;;5025913;28;20026;-73
2021/05/26 00:52:26;;;;;;;9.35;4.85;;;9.00;99.90;;;;;;5026315;28;20033;-71
2021/05/26 00:54:52;;;;;;;19.48;5.65;;;9.00;99.90;;;;;;5026194;28;20071;-71
2021/05/26 00:57:17;;;;;;;12.02;6.70;;;9.00;99.90;;;;;;5025849;28;20076;-80
2021/05/26 00:59:43;;;;;;;10.73;5.45;;;9.00;99.90;;;;;;5026579;28;20026;-70
2021/05/26 01:02:08;;;;;;;13.82;5.82;;;9.00;99.90;;;;;;5025765;28;20058;-72
2021/05/26 01:04:34;;;;;;;13.55;6.78;;;9.10;99.90;;;;;;5025620;28;20033;-71
2021/05/26 01:06:59;;;;;;;16.88;7.60;;;9.10;99.90;;;;;;5008296;28;20101;-71
2021/05/26 01:09:26;;;;;;;14.02;5.93;;;9.10;99.90;;;;;;5026026;28;20033;-72
2021/05/26 01:11:51;;;;;;;15.10;6.95;;;9.10;99.90;;;;;;5025538;28;20053;-72
2021/05/26 01:14:17;;;;;;;22.00;6.85;;;9.10;99.90;;;;;;5032323;28;20034;-71
2021/05/26 01:16:43;;;;;;;16.02;7.25;;;9.10;99.90;;;;;;5025528;28;20033;-72
2021/05/26 01:19:08;;;;;;;16.20;6.90;;;9.10;99.90;;;;;;5029126;28;20057;-72
2021/05/26 01:21:34;;;;;;;12.48;6.15;;;9.10;99.90;;;;;;5039771;28;20053;-72
2021/05/26 01:24:00;;;;;;;17.27;6.38;;;9.10;99.90;;;;;;5025440;28;20049;-73
2021/05/26 01:26:25;;;;;;;12.57;6.30;;;9.00;99.90;;;;;;5025556;28;20033;-71
2021/05/26 01:28:51;;;;;;;9.98;5.72;;;9.00;99.90;;;;;;5042447;28;20044;-71
2021/05/26 01:31:16;;;;;;;24.23;7.30;;;9.00;99.90;;;;;;5045123;28;20025;-70
2021/05/26 01:33:42;;;;;;;11.52;5.65;;;9.00;99.90;;;;;;5045225;28;20169;-71
2021/05/26 01:36:08;;;;;;;12.70;6.05;;;9.00;99.90;;;;;;5045395;28;20454;-70
2021/05/26 01:38:33;;;;;;;21.58;6.93;;;8.90;99.90;;;;;;5045096;28;20036;-70
2021/05/26 01:41:02;;;;;;;12.40;6.25;;;9.00;99.90;;;;;;5045036;28;20048;-69
2021/05/26 01:43:29;;;;;;;13.90;6.82;;;9.00;99.90;;;;;;5026665;28;20861;-71
2021/05/26 01:45:54;;;;;;;18.83;6.05;;;8.90;99.90;;;;;;5024254;28;20100;-71
2021/05/26 01:48:20;;;;;;;16.05;7.60;;;8.90;99.90;;;;;;5026176;28;20061;-72
2021/05/26 01:50:46;;;;;;;10.98;6.30;;;8.90;99.90;;;;;;5024990;28;20110;-70
2021/05/26 01:53:12;;;;;;;10.73;5.78;;;8.90;99.90;;;;;;5023617;28;20029;-70
2021/05/26 01:55:40;;;;;;;14.68;6.60;;;8.90;99.90;;;;;;5025311;28;20038;-71
2021/05/26 01:58:05;;;;;;;11.70;6.18;;;8.90;99.90;;;;;;5025329;28;20093;-72
2021/05/26 02:00:31;;;;;;;12.88;6.53;;;8.90;99.90;;;;;;5006960;28;20034;-69
2021/05/26 02:02:57;;;;;;;13.15;7.95;;;8.90;99.90;;;;;;5024569;28;20489;-70
2021/05/26 02:05:23;;;;;;;15.55;7.75;;;9.00;99.90;;;;;;5037501;28;20029;-69
2021/05/26 02:07:48;;;;;;;13.82;7.40;;;9.00;99.90;;;;;;5044610;28;20044;-70
2021/05/26 02:10:17;;;;;;;15.40;6.95;;;8.90;99.90;;;;;;5045127;28;20457;-69
2021/05/26 02:12:44;;;;;;;11.50;6.60;;;8.90;99.90;;;;;;5044567;28;20030;-69
2021/05/26 02:15:13;;;;;;;24.80;8.57;;;8.90;99.90;;;;;;5044704;28;20029;-73
2021/05/26 02:17:39;;;;;;;12.32;5.93;;;8.90;99.90;;;;;;5044967;28;20057;-72
2021/05/26 02:20:11;;;;;;;14.20;5.85;;;8.90;99.90;;;;;;5044160;28;20029;-70
2021/05/26 02:22:36;;;;;;;14.52;6.93;;;8.90;99.90;;;;;;5044546;28;20041;-71
2021/05/26 02:25:03;;;;;;;9.13;5.45;;;8.90;99.90;;;;;;5044489;28;20471;-73
2021/05/26 02:27:29;;;;;;;14.27;7.35;;;8.80;99.90;;;;;;5044441;28;20094;-72
2021/05/26 02:29:54;;;;;;;16.52;6.60;;;8.80;99.90;;;;;;5044930;28;20025;-72
2021/05/26 02:32:22;;;;;;;14.38;7.28;;;8.80;99.90;;;;;;5044432;28;20029;-70
2021/05/26 02:34:47;;;;;;;16.80;7.90;;;8.70;99.90;;;;;;5043969;28;20456;-72
2021/05/26 02:37:13;;;;;;;14.15;6.97;;;8.70;99.90;;;;;;5044552;28;20036;-73
2021/05/26 02:39:39;;;;;;;13.60;6.20;;;8.70;99.90;;;;;;5044358;28;20048;-71
2021/05/26 02:42:05;;;;;;;19.23;7.63;;;8.70;99.90;;;;;;5044194;28;20463;-72
2021/05/26 02:44:30;;;;;;;14.13;6.72;;;8.70;99.90;;;;;;5044479;28;20025;-73
2021/05/26 02:46:56;;;;;;;13.45;7.20;;;8.70;99.90;;;;;;5044057;28;20176;-73
2021/05/26 02:49:21;;;;;;;11.07;6.45;;;8.70;99.90;;;;;;5044210;28;20410;-73
2021/05/26 02:51:47;;;;;;;13.82;6.72;;;8.70;99.90;;;;;;5044360;28;20106;-71
2021/05/26 02:54:13;;;;;;;18.42;7.22;;;8.70;99.90;;;;;;5043939;28;20021;-74
2021/05/26 02:56:38;;;;;;;15.90;7.13;;;8.70;99.90;;;;;;5026695;28;20037;-76
2021/05/26 02:59:07;;;;;;;17.13;7.10;;;8.70;99.90;;;;;;5035695;28;20030;-73
2021/05/26 03:01:33;;;;;;;13.30;6.45;;;8.70;99.90;;;;;;5026947;28;20034;-74
2021/05/26 03:03:59;;;;;;;19.90;7.72;;;8.70;99.90;;;;;;5028124;28;20036;-72
2021/05/26 03:06:26;;;;;;;15.63;7.38;;;8.70;99.90;;;;;;5027997;28;20046;-72
2021/05/26 03:08:51;;;;;;;18.50;7.47;;;8.70;99.90;;;;;;5027705;28;20493;-74
2021/05/26 03:11:17;;;;;;;18.38;7.80;;;8.70;99.90;;;;;;5028326;28;20030;-69
2021/05/26 03:13:43;;;;;;;20.13;7.88;;;8.70;99.90;;;;;;5010406;28;20030;-73
2021/05/26 03:16:09;;;;;;;15.55;7.45;;;8.70;99.90;;;;;;5010452;28;20410;-73
2021/05/26 03:18:35;;;;;;;16.38;7.80;;;8.70;99.90;;;;;;5027967;28;20091;-75
2021/05/26 03:21:01;;;;;;;15.98;7.03;;;8.70;99.90;;;;;;5027904;28;20034;-75
2021/05/26 03:23:27;;;;;;;14.30;5.97;;;8.70;99.90;;;;;;5027821;28;20120;-72
2021/05/26 03:25:52;;;;;;;14.05;6.88;;;8.80;99.90;;;;;;5027913;28;20410;-73
2021/05/26 03:28:18;;;;;;;19.55;8.40;;;8.70;99.90;;;;;;5027591;28;20022;-74
2021/05/26 03:30:45;;;;;;;15.50;7.57;;;8.80;99.90;;;;;;5010020;28;20026;-74
2021/05/26 03:33:11;;;;;;;16.73;7.43;;;8.80;99.90;;;;;;5026723;28;20053;-73
2021/05/26 03:35:39;;;;;;;15.27;7.57;;;8.70;99.90;;;;;;5027717;28;20046;-74
2021/05/26 03:38:06;;;;;;;17.05;7.50;;;8.80;99.90;;;;;;5026400;28;20037;-74
2021/05/26 03:40:32;;;;;;;12.82;6.93;;;8.80;99.90;;;;;;5009789;28;20090;-72
2021/05/26 03:42:58;;;;;;;14.13;6.15;;;8.80;99.90;;;;;;5025975;28;20034;-76
2021/05/26 03:45:23;;;;;;;13.88;6.95;;;8.80;99.90;;;;;;5027322;28;20018;-75
2021/05/26 03:47:49;;;;;;;25.70;7.15;;;8.80;99.90;;;;;;5027314;28;20053;-76
2021/05/26 03:50:15;;;;;;;12.38;6.40;;;8.80;99.90;;;;;;5027217;28;20674;-77
2021/05/26 03:52:43;;;;;;;19.65;8.63;;;8.80;99.90;;;;;;5027588;28;20045;-77
2021/05/26 03:55:11;;;;;;;18.13;8.05;;;8.80;99.90;;;;;;5026047;28;20026;-77
2021/05/26 03:57:38;;;;;;;16.15;7.30;;;8.90;99.90;;;;;;5025899;28;20044;-77
2021/05/26 04:00:06;;;;;;;13.85;7.55;;;8.90;99.90;;;;;;5027183;28;20026;-75
2021/05/26 04:02:31;;;;;;;22.90;7.30;;;8.90;99.90;;;;;;5026645;28;20062;-73
2021/05/26 04:04:57;;;;;;;16.45;7.05;;;8.90;99.90;;;;;;5025319;28;20061;-73
2021/05/26 04:07:23;;;;;;;15.93;7.63;;;9.00;99.90;;;;;;5027277;28;20026;-73
2021/05/26 04:09:48;;;;;;;14.75;6.15;;;9.00;99.90;;;;;;5027184;28;20049;-73
2021/05/26 04:12:14;;;;;;;15.30;7.50;;;9.00;99.90;;;;;;5024457;28;20030;-76
2021/05/26 04:14:39;;;;;;;14.70;7.45;;;9.00;99.90;;;;;;5027111;28;20026;-79
2021/05/26 04:17:05;;;;;;;12.73;6.18;;;9.10;99.90;;;;;;5025706;28;20026;-79
2021/05/26 04:19:31;;;;;;;14.07;6.95;;;9.10;99.90;;;;;;5026581;28;20082;-80
2021/05/26 04:21:56;;;;;;;17.02;7.70;;;9.20;99.90;;;;;;5025478;28;20045;-76
2021/05/26 04:24:22;;;;;;;16.73;7.40;;;9.20;99.90;;;;;;5026442;28;20029;-77
2021/05/26 04:26:47;;;;;;;20.80;8.27;;;9.20;99.90;;;;;;5025533;28;20045;-79
2021/05/26 04:29:14;;;;;;;15.75;7.38;;;9.10;99.90;;;;;;5025755;28;20032;-79
2021/05/26 04:31:39;;;;;;;14.00;7.00;;;9.10;99.90;;;;;;5025245;28;20097;-74
2021/05/26 04:34:05;;;;;;;14.02;7.03;;;9.10;99.90;;;;;;5026699;28;20089;-79
2021/05/26 04:36:31;;;;;;;16.65;6.85;;;9.20;99.90;;;;;;5008855;28;20038;-78
2021/05/26 04:38:56;;;;;;;22.98;8.15;;;9.20;99.90;;;;;;5026469;28;20037;-74
2021/05/26 04:41:22;;;;;;;11.85;6.50;;;9.10;99.90;;;;;;5025282;28;20044;-75
2021/05/26 04:43:48;;;;;;;13.23;6.60;;;9.20;99.90;;;;;;5026585;28;20034;-74
2021/05/26 04:46:13;;;;;;;15.15;6.63;;;9.20;99.90;;;;;;5026152;28;20030;-72
2021/05/26 04:48:39;;;;;;;13.93;6.20;;;9.20;99.90;;;;;;5026733;28;20049;-71
2021/05/26 04:51:05;;;;;;;19.27;7.22;;;9.20;99.90;;;;;;5026231;28;20164;-72
2021/05/26 04:53:30;;;;;;;22.63;9.50;;;9.20;99.90;;;;;;5024544;28;20573;-73
2021/05/26 04:55:56;;;;;;;20.98;7.70;;;9.20;99.90;;;;;;5026218;28;20037;-72
2021/05/26 04:58:21;;;;;;;15.98;8.10;;;9.20;99.90;;;;;;5025916;28;20030;-71
2021/05/26 05:00:47;;;;;;;16.88;8.10;;;9.20;99.90;;;;;;5025567;28;20032;-74
2021/05/26 05:03:13;;;;;;;21.13;8.48;;;9.20;99.90;;;;;;5025856;28;20495;-73
2021/05/26 05:05:38;;;;;;;23.50;9.73;;;9.20;99.90;;;;;;5025865;28;20030;-73
2021/05/26 05:08:06;;;;;;;18.30;8.18;;;9.20;99.90;;;;;;5027439;28;20080;-72
2021/05/26 05:10:32;;;;;;;19.73;8.40;;;9.20;99.90;;;;;;5024535;28;20036;-72
2021/05/26 05:12:58;;;;;;;26.88;9.07;;;9.20;99.90;;;;;;5024129;28;20025;-73
2021/05/26 05:15:24;;;;;;;35.17;9.75;;;9.20;99.90;;;;;;5039145;28;20056;-72
2021/05/26 05:17:50;;;;;;;18.08;9.27;;;9.30;99.90;;;;;;5045458;28;20034;-71
2021/05/26 05:20:19;;;;;;;20.38;9.43;;;9.30;99.90;;;;;;5045176;28;20473;-71
2021/05/26 05:22:46;;;;;;;18.33;9.73;;;9.30;99.90;;;;;;5026973;28;20072;-71
2021/05/26 05:25:11;;;;;;;27.30;10.38;;;9.30;99.90;;;;;;5027391;28;20018;-72
2021/05/26 05:27:37;;;;;;;18.85;10.07;;;9.30;99.90;;;;;;5044416;28;20103;-70
2021/05/26 05:30:04;;;;;;;21.73;9.57;;;9.40;99.90;;;;;;5045189;28;20040;-72
2021/05/26 05:32:30;;;;;;;21.60;10.82;;;9.40;99.90;;;;;;5045067;28;20164;-73
2021/05/26 05:34:56;;;;;;;24.00;10.57;;;9.30;99.90;;;;;;5044962;28;20029;-70
2021/05/26 05:37:21;;;;;;;22.48;10.57;;;9.30;99.90;;;;;;5045184;28;20045;-72
2021/05/26 05:39:47;;;;;;;18.67;10.13;;;9.40;99.90;;;;;;5044785;28;20090;-71
2021/05/26 05:42:12;;;;;;;27.90;10.48;;;9.40;99.90;;;;;;5045151;28;20101;-72
2021/05/26 05:44:38;;;;;;;25.30;11.43;;;9.40;99.90;;;;;;5044452;28;20036;-72
2021/05/26 05:47:04;;;;;;;25.05;10.93;;;9.40;99.90;;;;;;5044523;28;20033;-73
2021/05/26 05:49:30;;;;;;;25.55;10.25;;;9.40;99.90;;;;;;5027207;28;20025;-70
2021/05/26 05:51:55;;;;;;;29.45;11.18;;;9.40;99.90;;;;;;5044720;28;20030;-73
2021/05/26 05:54:21;;;;;;;28.08;11.45;;;9.40;99.90;;;;;;5026582;28;20041;-71
2021/05/26 05:56:47;;;;;;;30.63;10.93;;;9.40;99.90;;;;;;5044830;28;20026;-74
2021/05/26 05:59:12;;;;;;;25.83;11.18;;;9.40;99.90;;;;;;5044665;28;20370;-71
2021/05/26 06:01:38;;;;;;;24.38;10.88;;;9.40;99.90;;;;;;5044153;28;20041;-71
2021/05/26 06:04:04;;;;;;;31.20;11.68;;;9.50;99.90;;;;;;5044688;28;20033;-70
2021/05/26 06:06:29;;;;;;;25.95;12.27;;;9.50;99.90;;;;;;5044397;28;20034;-70
2021/05/26 06:08:55;;;;;;;32.63;12.30;;;9.50;99.90;;;;;;5044533;28;20351;-73
2021/05/26 06:11:20;;;;;;;27.48;12.57;;;9.50;99.90;;;;;;5044702;28;20037;-68
2021/05/26 06:13:48;;;;;;;25.08;10.82;;;9.50;99.90;;;;;;5044388;28;20030;-69
2021/05/26 06:16:15;;;;;;;31.60;13.93;;;9.50;99.90;;;;;;5044315;28;20386;-74
2021/05/26 06:18:41;;;;;;;23.63;12.48;;;9.50;99.90;;;;;;5044504;28;20032;-73
2021/05/26 06:21:06;;;;;;;24.35;11.35;;;9.60;99.90;;;;;;5044289;28;20041;-71
2021/05/26 06:23:32;;;;;;;23.80;11.88;;;9.70;99.90;;;;;;5044185;28;20068;-73
2021/05/26 06:25:58;;;;;;;37.08;12.85;;;9.70;99.90;;;;;;5044159;28;20030;-74
2021/05/26 06:28:23;;;;;;;22.98;12.93;;;9.80;99.90;;;;;;5025992;28;20033;-74
2021/05/26 06:30:49;;;;;;;31.30;12.98;;;9.80;99.90;;;;;;5037606;28;20080;-72
2021/05/26 06:33:15;;;;;;;23.80;11.63;;;9.90;99.90;;;;;;5022920;28;20022;-77
2021/05/26 06:35:40;;;;;;;31.55;12.32;;;9.90;99.90;;;;;;5026403;28;20036;-73
2021/05/26 06:38:06;;;;;;;34.65;13.20;;;10.00;99.90;;;;;;5030066;28;20029;-75
2021/05/26 06:40:31;;;;;;;24.42;12.20;;;10.00;99.90;;;;;;5030459;28;20057;-73
2021/05/26 06:42:57;;;;;;;23.88;10.75;;;10.00;99.90;;;;;;5026395;28;20034;-71
2021/05/26 06:45:23;;;;;;;23.58;11.45;;;10.00;99.90;;;;;;5028825;28;20030;-75
2021/05/26 06:47:48;;;;;;;28.27;11.40;;;10.00;99.90;;;;;;5028260;28;20026;-74
2021/05/26 06:50:16;;;;;;;21.50;10.80;;;10.00;99.90;;;;;;5028543;28;20045;-73
2021/05/26 06:52:41;;;;;;;20.70;9.85;;;10.10;99.90;;;;;;5028628;28;20026;-74
2021/05/26 06:55:07;;;;;;;29.23;11.18;;;10.10;99.90;;;;;;5009985;28;20450;-75
2021/05/26 06:57:33;;;;;;;19.38;9.20;;;10.10;99.90;;;;;;5010406;28;20121;-76
2021/05/26 06:59:58;;;;;;;20.60;10.82;;;10.10;99.90;;;;;;5025726;28;20041;-77
2021/05/26 07:02:24;;;;;;;23.13;10.77;;;10.20;99.90;;;;;;5026141;28;20050;-75
2021/05/26 07:04:49;;;;;;;24.33;9.60;;;10.20;99.90;;;;;;5027732;28;20030;-76
2021/05/26 07:07:15;;;;;;;22.45;9.45;;;10.30;99.90;;;;;;5028049;28;20149;-74
2021/05/26 07:09:41;;;;;;;20.65;9.77;;;10.40;99.90;;;;;;5028168;28;20058;-75
2021/05/26 07:12:07;;;;;;;18.05;8.85;;;10.40;99.90;;;;;;5027891;28;20030;-74
2021/05/26 07:14:32;;;;;;;15.52;8.55;;;10.40;99.90;;;;;;5019105;28;20459;-75
2021/05/26 07:16:58;;;;;;;22.92;9.98;;;10.40;99.90;;;;;;5027285;28;20086;-71
2021/05/26 07:19:23;;;;;;;18.63;9.35;;;10.40;99.90;;;;;;5027878;28;20029;-72
2021/05/26 07:21:49;;;;;;;23.52;8.82;;;10.40;99.90;;;;;;5026252;28;20040;-73
2021/05/26 07:24:15;;;;;;;22.20;8.73;;;10.50;99.90;;;;;;5027927;28;20030;-72
2021/05/26 07:26:40;;;;;;;23.27;8.98;;;10.60;99.90;;;;;;5026253;28;20034;-69
2021/05/26 07:29:06;;;;;;;18.40;8.88;;;10.60;99.90;;;;;;5027467;28;20033;-75
2021/05/26 07:31:32;;;;;;;19.30;7.82;;;10.60;99.90;;;;;;5026257;28;20038;-77
2021/05/26 07:33:58;;;;;;;16.90;7.97;;;10.50;99.90;;;;;;5027686;28;20510;-73
2021/05/26 07:36:24;;;;;;;14.00;6.82;;;10.60;99.90;;;;;;5027265;28;20026;-72
2021/05/26 07:38:50;;;;;;;23.75;6.93;;;10.50;99.90;;;;;;5027783;28;20062;-71
2021/05/26 07:41:16;;;;;;;18.00;7.90;;;10.60;99.90;;;;;;5025925;28;20037;-71
2021/05/26 07:43:41;;;;;;;11.35;5.90;;;10.60;99.90;;;;;;5025784;28;20022;-71
2021/05/26 07:46:07;;;;;;;22.75;7.63;;;10.70;99.90;;;;;;5026797;28;20565;-71
2021/05/26 07:48:34;;;;;;;13.40;6.43;;;10.80;99.90;;;;;;5027036;28;20030;-71
2021/05/26 07:51:02;;;;;;;12.63;6.97;;;10.80;99.90;;;;;;5026684;28;20053;-71
2021/05/26 07:53:27;;;;;;;13.55;7.38;;;10.90;99.90;;;;;;5026838;28;20037;-70
2021/05/26 07:55:53;;;;;;;11.27;6.15;;;11.00;99.90;;;;;;5026970;28;20026;-72
2021/05/26 07:58:19;;;;;;;12.30;5.43;;;11.10;99.90;;;;;;5027031;28;20033;-69
2021/05/26 08:00:44;;;;;;;11.70;5.95;;;11.20;99.90;;;;;;5026542;28;20098;-67
2021/05/26 08:03:10;;;;;;;11.02;6.05;;;11.20;99.90;;;;;;5040716;28;20111;-74
2021/05/26 08:05:35;;;;;;;10.35;5.45;;;11.20;99.90;;;;;;5040823;28;20088;-69
2021/05/26 08:08:01;;;;;;;12.05;5.45;;;11.10;99.90;;;;;;5036353;28;20037;-73
2021/05/26 08:10:26;;;;;;;16.90;5.80;;;11.00;99.90;;;;;;5032594;28;20036;-75
2021/05/26 08:12:52;;;;;;;9.25;5.97;;;10.90;99.90;;;;;;5028666;28;20469;-72
2021/05/26 08:15:18;;;;;;;13.90;5.72;;;10.90;99.90;;;;;;5047001;28;20049;-70
2021/05/26 08:17:44;;;;;;;11.88;4.65;;;10.80;99.90;;;;;;5028934;28;20037;-70
2021/05/26 08:20:11;;;;;;;9.82;4.78;;;10.80;99.90;;;;;;5028665;28;20026;-69
2021/05/26 08:22:37;;;;;;;14.00;5.88;;;10.80;99.90;;;;;;5037513;28;20049;-74
2021/05/26 08:25:04;;;;;;;11.63;5.07;;;10.80;99.90;;;;;;5015538;28;20071;-74
2021/05/26 08:27:30;;;;;;;7.85;3.83;;;10.90;99.90;;;;;;5039195;28;20026;-72
2021/05/26 08:29:59;;;;;;;7.40;3.47;;;10.90;99.90;;;;;;5041612;28;20118;-73
2021/05/26 08:32:24;;;;;;;7.15;4.38;;;10.90;99.90;;;;;;5023510;28;20032;-71
2021/05/26 08:34:50;;;;;;;5.75;3.70;;;11.00;99.90;;;;;;5026439;28;20041;-73
2021/05/26 08:37:16;;;;;;;7.03;3.58;;;11.10;99.90;;;;;;5026576;28;20041;-73
2021/05/26 08:39:43;;;;;;;7.22;3.40;;;11.20;99.90;;;;;;5045486;28;20163;-73
2021/05/26 08:42:10;;;;;;;6.43;3.75;;;11.20;99.90;;;;;;5031706;28;20029;-75
2021/05/26 08:44:35;;;;;;;9.32;3.60;;;11.20;99.90;;;;;;5026340;28;20053;-74
2021/05/26 08:47:03;;;;;;;5.85;2.92;;;11.20;99.90;;;;;;5026121;28;20038;-73
2021/05/26 08:49:30;;;;;;;6.60;2.15;;;11.20;99.90;;;;;;5026398;28;20029;-72
2021/05/26 08:52:01;;;;;;;4.93;3.17;;;11.20;99.90;;;;;;5023580;28;20026;-69
2021/05/26 08:54:28;;;;;;;4.10;2.38;;;11.20;99.90;;;;;;5041367;28;20481;-69
2021/05/26 08:56:54;;;;;;;6.10;3.22;;;11.20;99.90;;;;;;5024889;28;20040;-72
2021/05/26 08:59:20;;;;;;;5.40;2.92;;;11.40;99.90;;;;;;5029402;28;20109;-73
2021/05/26 09:01:53;;;;;;;1.95;1.55;;;11.40;99.90;;;;;;5037989;28;20120;-75
2021/05/26 09:04:34;;;;;;;3.53;2.10;;;11.60;99.90;;;;;;5042954;28;20536;-74
2021/05/26 09:07:26;;;;;;;3.35;2.60;;;11.70;99.90;;;;;;5027374;28;20068;-71
2021/05/26 09:09:54;;;;;;;4.72;2.65;;;11.90;99.90;;;;;;5026493;28;20026;-72
2021/05/26 09:12:23;;;;;;;9.27;2.88;;;12.00;99.90;;;;;;5027768;28;20049;-73
2021/05/26 09:14:49;;;;;;;9.77;2.67;;;12.20;99.90;;;;;;5045215;28;20466;-72
2021/05/26 09:17:15;;;;;;;4.28;2.28;;;12.40;99.90;;;;;;5027962;28;20031;-71
2021/05/26 09:19:41;;;;;;;9.75;3.30;;;12.50;99.90;;;;;;5028184;28;20028;-72
2021/05/26 09:22:15;;;;;;;5.60;2.40;;;12.40;99.90;;;;;;5025634;28;20398;-73
2021/05/26 09:24:42;;;;;;;4.45;2.53;;;12.50;99.90;;;;;;5008096;28;20054;-75
2021/05/26 09:27:12;;;;;;;4.78;2.90;;;12.50;99.90;;;;;;5025995;28;20034;-74
2021/05/26 09:29:45;;;;;;;2.45;1.60;;;12.70;99.90;;;;;;5025161;28;20038;-73
2021/05/26 09:32:19;;;;;;;4.38;2.50;;;12.80;99.90;;;;;;5025448;28;20494;-73
2021/05/26 09:34:51;;;;;;;3.17;1.77;;;12.70;99.90;;;;;;5025492;28;20037;-73
2021/05/26 09:37:28;;;;;;;4.47;2.88;;;12.70;99.90;;;;;;5027904;28;20030;-75
2021/05/26 09:39:57;;;;;;;5.53;2.88;;;12.50;99.90;;;;;;5025039;28;20084;-72
2021/05/26 09:42:43;;;;;;;5.20;2.65;;;12.40;99.90;;;;;;5024874;28;20042;-71
2021/05/26 09:45:17;;;;;;;4.25;2.40;;;12.20;99.90;;;;;;5025649;28;20094;-73
2021/05/26 09:47:51;;;;;;;5.20;3.25;;;12.10;99.90;;;;;;5025584;28;20061;-69
2021/05/26 09:50:37;;;;;;;6.53;3.33;;;12.10;99.90;;;;;;5023853;28;20038;-72
2021/05/26 09:53:16;;;;;;;3.67;2.45;;;12.00;99.90;;;;;;5025413;28;20040;-68
2021/05/26 09:55:46;;;;;;;10.13;2.85;;;12.00;99.90;;;;;;5025563;28;20054;-73
2021/05/26 09:58:13;;;;;;;6.20;3.05;;;11.90;99.90;;;;;;5024984;28;20076;-72
2021/05/26 10:00:41;;;;;;;8.25;2.97;;;11.90;99.90;;;;;;5025407;28;20085;-74
2021/05/26 10:03:07;;;;;;;5.60;2.92;;;11.90;99.90;;;;;;5024886;28;20584;-70
2021/05/26 10:05:34;;;;;;;23.70;2.65;;;11.90;99.90;;;;;;5023803;28;20644;-69
2021/05/26 10:08:01;;;;;;;4.82;3.20;;;11.80;99.90;;;;;;5023910;28;20038;-73
2021/05/26 10:10:29;;;;;;;8.20;3.85;;;11.70;99.90;;;;;;5005992;28;20030;-69
2021/05/26 10:12:58;;;;;;;5.63;3.40;;;11.60;99.90;;;;;;5010731;28;20030;-71
2021/05/26 10:15:26;;;;;;;15.48;4.03;;;11.40;99.90;;;;;;5016632;28;20053;-72
2021/05/26 10:17:54;;;;;;;9.63;4.25;;;11.30;99.90;;;;;;5037644;28;20029;-72
2021/05/26 10:20:25;;;;;;;9.88;4.40;;;11.20;99.90;;;;;;5038050;28;20017;-70
2021/05/26 10:22:53;;;;;;;7.25;4.30;;;11.10;99.90;;;;;;5041953;28;20052;-72
2021/05/26 10:25:20;;;;;;;17.70;5.03;;;11.00;99.90;;;;;;5044374;28;20040;-69
2021/05/26 10:27:51;;;;;;;10.27;4.93;;;11.00;99.90;;;;;;5044915;28;20029;-71
2021/05/26 10:30:19;;;;;;;12.35;5.05;;;11.00;99.90;;;;;;5043921;28;20029;-70
2021/05/26 10:32:53;;;;;;;11.68;5.10;;;10.90;99.90;;;;;;5044278;28;20089;-72
2021/05/26 10:35:20;;;;;;;17.43;5.53;;;10.90;99.90;;;;;;5043792;28;20074;-71
2021/05/26 10:37:54;;;;;;;12.77;5.20;;;10.90;99.90;;;;;;5042854;28;20268;-75
2021/05/26 10:40:22;;;;;;;9.63;5.45;;;10.90;99.90;;;;;;5040577;28;20040;-71
2021/05/26 10:42:49;;;;;;;9.48;5.20;;;10.80;99.90;;;;;;5044426;28;20077;-73
2021/05/26 10:45:19;;;;;;;15.10;5.55;;;10.90;99.90;;;;;;5044294;28;20072;-70
2021/05/26 10:47:48;;;;;;;11.88;6.75;;;10.80;99.90;;;;;;5044208;28;20474;-71
2021/05/26 10:50:24;;;;;;;13.23;5.97;;;10.90;99.90;;;;;;5044477;28;20030;-71
2021/05/26 10:52:56;;;;;;;16.55;6.13;;;10.90;99.90;;;;;;5044180;28;20033;-69
2021/05/26 10:55:37;;;;;;;12.82;6.75;;;10.90;99.90;;;;;;5032796;28;20029;-71
2021/05/26 10:58:12;;;;;;;11.57;5.97;;;10.90;99.90;;;;;;5043696;28;20057;-70
2021/05/26 11:00:40;;;;;;;13.00;6.18;;;11.00;99.90;;;;;;5042722;28;20056;-70
2021/05/26 11:03:25;;;;;;;14.13;8.43;;;11.00;99.90;;;;;;5042691;28;20053;-72
2021/05/26 11:05:51;;;;;;;12.80;5.82;;;11.10;99.90;;;;;;5043703;28;20033;-69
2021/05/26 11:08:28;;;;;;;9.63;4.60;;;11.20;99.90;;;;;;5043684;28;20021;-74
2021/05/26 11:10:54;;;;;;;5.00;2.50;;;11.40;99.90;;;;;;5044600;28;20040;-71
2021/05/26 11:13:19;;;;;;;5.35;3.10;;;11.40;99.90;;;;;;5044208;28;20053;-71
2021/05/26 11:15:48;;;;;;;7.22;2.63;;;11.40;99.90;;;;;;5043963;28;20022;-71
2021/05/26 11:18:29;;;;;;;3.13;1.63;;;11.50;99.90;;;;;;5044123;28;20032;-70
2021/05/26 11:20:55;;;;;;;3.00;1.60;;;11.60;99.90;;;;;;5042736;28;20061;-73
2021/05/26 11:23:20;;;;;;;3.22;1.63;;;11.60;99.90;;;;;;5045930;28;20025;-70
2021/05/26 11:25:54;;;;;;;1.95;1.48;;;11.60;99.90;;;;;;5047644;28;20489;-73
2021/05/26 11:28:30;;;;;;;2.55;1.83;;;11.70;99.90;;;;;;5047456;28;20029;-70
2021/05/26 11:31:05;;;;;;;2.70;1.95;;;11.80;99.90;;;;;;5046987;28;20021;-71
2021/05/26 11:33:31;;;;;;;2.47;1.80;;;12.20;99.90;;;;;;5046928;28;20047;-73
2021/05/26 11:36:03;;;;;;;4.63;2.53;;;12.40;99.90;;;;;;5046558;28;20480;-72
2021/05/26 11:38:28;;;;;;;5.95;2.40;;;12.40;99.90;;;;;;5047554;28;20052;-71
2021/05/26 11:40:54;;;;;;;4.72;2.42;;;12.50;99.90;;;;;;5047098;28;20030;-68
2021/05/26 11:43:23;;;;;;;3.05;1.92;;;12.60;99.90;;;;;;5046955;28;20079;-69
2021/05/26 11:46:06;;;;;;;6.93;3.13;;;12.90;99.90;;;;;;5046985;28;20041;-71
2021/05/26 11:48:32;;;;;;;7.70;3.25;;;13.30;99.90;;;;;;5029038;28;20101;-71
2021/05/26 11:50:58;;;;;;;6.85;2.95;;;13.60;99.90;;;;;;5046953;28;20053;-73
2021/05/26 11:53:24;;;;;;;6.20;3.13;;;13.90;99.90;;;;;;5045326;28;20022;-76
2021/05/26 11:55:52;;;;;;;4.85;2.75;;;14.30;99.90;;;;;;5027765;28;20026;-70
2021/05/26 11:58:35;;;;;;;3.22;2.30;;;14.40;99.90;;;;;;5046309;28;20025;-72
2021/05/26 12:01:16;;;;;;;4.22;2.58;;;14.50;99.90;;;;;;5028822;28;20075;-73
2021/05/26 12:54:53;;;;;;;3.55;1.85;;;15.70;99.90;;;;;;4507669;23;22947;-77
2021/05/26 12:57:23;;;;;;;2.22;1.42;;;15.80;99.90;;;;;;5016009;28;20062;-75
2021/05/26 12:59:58;;;;;;;2.72;1.70;;;15.80;99.90;;;;;;5003669;28;20894;-74
2021/05/26 13:02:32;;;;;;;2.30;1.70;;;15.70;99.90;;;;;;5006453;28;20038;-75
2021/05/26 13:04:59;;;;;;;2.95;1.52;;;15.90;99.90;;;;;;5005236;28;20041;-72
2021/05/26 13:07:36;;;;;;;4.45;1.38;;;16.10;99.90;;;;;;5005915;28;20070;-72
2021/05/26 13:10:24;;;;;;;3.08;1.35;;;16.20;99.90;;;;;;5005116;28;20367;-76
2021/05/26 13:12:51;;;;;;;1.10;0.75;;;16.30;99.90;;;;;;5004275;28;20085;-73
2021/05/26 13:15:32;;;;;;;2.00;1.17;;;16.30;99.90;;;;;;5004644;28;20023;-72
2021/05/26 13:17:59;;;;;;;0.93;0.75;;;16.00;99.90;;;;;;5005811;28;20034;-73
2021/05/26 13:20:33;;;;;;;1.38;0.88;;;15.80;99.90;;;;;;5006144;28;20026;-73
2021/05/26 13:23:01;;;;;;;0.50;0.50;;;15.80;99.90;;;;;;5006133;28;20125;-70
2021/05/26 13:25:28;;;;;;;0.75;0.52;;;15.70;99.90;;;;;;5006255;28;20068;-73
2021/05/26 13:27:54;;;;;;;1.70;0.63;;;15.40;99.90;;;;;;5005668;28;20088;-72
2021/05/26 13:30:22;;;;;;;0.28;0.20;;;15.00;99.90;;;;;;5006144;28;20018;-74
2021/05/26 13:32:49;;;;;;;0.65;0.43;;;14.60;99.90;;;;;;5005761;28;20106;-69
2021/05/26 13:35:14;;;;;;;0.43;0.22;;;14.20;99.90;;;;;;5005531;28;20069;-73
2021/05/26 13:37:41;;;;;;;8.90;0.38;;;13.90;99.90;;;;;;5005955;28;20022;-71